Time;durP1;ratioP1;P1;durP2;ratioP2;P2;SDS_P1;SDS_P2;PMS_P1;PMS_P2;Temp;Humidity;BMP_temperature;BMP_pressure;BME280_temperature;BME280_humidity;BME280_pressure;Samples;Min_cycle;Max_cycle;Signal;HPM_P1;HPM_P2
2022/06/22 00:00:14;;;;;;;11.55;9.02;;;8.50;99.90;;;;;;5028039;28;20042;-43
2022/06/22 00:02:42;;;;;;;14.45;10.23;;;8.60;99.90;;;;;;5028159;28;20041;-43
2022/06/22 00:05:17;;;;;;;14.23;9.68;;;8.50;99.90;;;;;;5027799;28;20040;-43
2022/06/22 00:07:49;;;;;;;12.60;9.38;;;8.50;99.90;;;;;;5028058;28;20370;-44
2022/06/22 00:10:17;;;;;;;;;;;8.40;99.90;;;;;;5028139;28;20041;-44
2022/06/22 00:12:49;;;;;;;239.60;14.50;;;8.40;99.90;;;;;;5027935;28;19925;-44
2022/06/22 00:15:37;;;;;;;77.13;10.80;;;9.40;99.90;;;;;;5028201;28;20042;-44
2022/06/22 00:18:27;;;;;;;13.13;8.40;;;8.40;99.90;;;;;;5026358;28;20378;-44
2022/06/22 00:20:56;;;;;;;15.30;10.10;;;8.30;99.90;;;;;;5027413;28;20099;-44
2022/06/22 00:23:39;;;;;;;14.20;10.07;;;8.20;99.90;;;;;;5028084;28;20045;-44
2022/06/22 00:26:24;;;;;;;16.48;11.27;;;8.20;99.90;;;;;;5028242;28;20092;-43
2022/06/22 00:28:53;;;;;;;18.55;13.40;;;8.20;99.90;;;;;;5023364;28;20582;-36
2022/06/22 00:31:28;;;;;;;20.27;13.30;;;8.20;99.90;;;;;;5027933;28;20052;-36
2022/06/22 00:34:09;;;;;;;25.42;14.90;;;8.20;99.90;;;;;;5031584;28;20037;-36
2022/06/22 00:36:47;;;;;;;32.40;17.08;;;8.20;99.90;;;;;;5031526;28;20071;-36
2022/06/22 00:39:30;;;;;;;34.70;17.95;;;8.30;99.90;;;;;;5031534;28;20053;-36
2022/06/22 00:41:58;;;;;;;31.42;18.65;;;8.40;99.90;;;;;;5031300;28;20125;-36
2022/06/22 00:44:32;;;;;;;26.33;16.20;;;8.50;99.90;;;;;;5031075;28;20045;-36
2022/06/22 00:47:16;;;;;;;22.20;14.88;;;9.20;99.90;;;;;;5031084;28;20694;-36
2022/06/22 00:49:43;;;;;;;21.75;13.38;;;8.60;99.90;;;;;;5030911;28;20057;-36
2022/06/22 00:52:09;;;;;;;22.67;13.45;;;8.50;99.90;;;;;;5030744;28;20044;-36
2022/06/22 00:54:37;;;;;;;18.17;12.68;;;8.30;99.90;;;;;;5030712;28;20057;-36
2022/06/22 00:57:05;;;;;;;17.95;12.48;;;8.20;99.90;;;;;;5030580;28;20600;-36
2022/06/22 01:00:17;;;;;;;19.35;13.07;;;8.10;99.90;;;;;;5030979;28;20046;-36
2022/06/22 01:02:56;;;;;;;17.25;12.30;;;8.00;99.90;;;;;;5031041;28;20037;-36
2022/06/22 01:05:35;;;;;;;17.05;12.00;;;7.80;99.90;;;;;;5030684;28;20049;-36
2022/06/22 01:08:11;;;;;;;16.10;11.98;;;7.80;99.90;;;;;;5030199;28;20865;-36
2022/06/22 01:12:16;;;;;;;16.83;12.90;;;7.80;99.90;;;;;;5029799;28;20432;-36
2022/06/22 01:13:55;;;;;;;17.48;12.00;;;7.70;99.90;;;;;;5029866;28;20060;-36
2022/06/22 01:16:28;;;;;;;17.33;10.68;;;7.50;99.90;;;;;;5030623;28;20044;-36
2022/06/22 01:18:59;;;;;;;11.65;8.48;;;7.50;99.90;;;;;;5029748;28;20056;-35
2022/06/22 01:21:30;;;;;;;5.65;4.85;;;7.40;99.90;;;;;;5030353;28;20497;-36
2022/06/22 01:24:13;;;;;;;6.22;4.40;;;7.30;99.90;;;;;;5029813;28;20533;-36
2022/06/22 01:27:07;;;;;;;4.63;3.88;;;7.20;99.90;;;;;;5030228;28;20116;-36
2022/06/22 01:29:33;;;;;;;62.47;8.30;;;7.20;99.90;;;;;;5028635;28;20045;-36
2022/06/22 01:32:07;;;;;;;17.55;4.75;;;8.20;99.90;;;;;;5029687;28;20116;-36
2022/06/22 01:34:37;;;;;;;16.60;4.35;;;7.10;99.90;;;;;;5029896;28;20051;-35
2022/06/22 01:37:05;;;;;;;9.38;3.95;;;7.10;99.90;;;;;;5029362;28;20049;-36
2022/06/22 01:39:31;;;;;;;10.27;4.65;;;7.40;99.90;;;;;;5029429;28;20041;-36
2022/06/22 01:42:05;;;;;;;30.80;4.47;;;7.00;99.90;;;;;;5029444;28;20116;-36
2022/06/22 01:44:40;;;;;;;15.85;3.28;;;7.00;99.90;;;;;;5028897;28;20052;-35
2022/06/22 01:47:34;;;;;;;68.78;6.55;;;7.00;99.90;;;;;;5029262;28;20096;-36
2022/06/22 01:50:02;;;;;;;21.95;5.10;;;7.00;99.90;;;;;;5029221;28;20130;-36
2022/06/22 01:52:41;;;;;;;12.48;5.72;;;8.00;99.90;;;;;;5029784;28;20050;-35
2022/06/22 01:55:36;;;;;;;32.40;8.05;;;6.90;99.90;;;;;;5029207;28;20045;-36
2022/06/22 01:58:13;;;;;;;9.35;6.15;;;6.90;99.90;;;;;;5028787;28;20064;-36
2022/06/22 02:00:40;;;;;;;18.63;7.13;;;6.90;99.90;;;;;;5029558;28;20459;-36
2022/06/22 02:03:36;;;;;;;23.67;7.30;;;6.90;99.90;;;;;;5029374;28;20609;-36
2022/06/22 02:09:12;;;;;;;9.32;6.15;;;6.90;99.90;;;;;;5029410;28;20114;-35
2022/06/22 02:11:47;;;;;;;8.70;5.80;;;6.90;99.90;;;;;;5028551;28;20049;-36
2022/06/22 02:14:18;;;;;;;11.27;7.22;;;6.80;99.90;;;;;;5029242;28;20203;-36
2022/06/22 02:16:58;;;;;;;13.23;8.77;;;6.70;99.90;;;;;;5029485;28;20045;-35
2022/06/22 02:19:29;;;;;;;11.90;7.20;;;7.20;99.90;;;;;;5029114;28;20485;-36
2022/06/22 02:21:57;;;;;;;14.57;7.53;;;6.60;99.90;;;;;;5028814;28;20591;-36
2022/06/22 02:24:26;;;;;;;44.33;9.05;;;6.60;99.90;;;;;;5028682;28;20504;-36
2022/06/22 02:26:53;;;;;;;54.42;8.82;;;6.60;99.90;;;;;;5029062;28;20046;-35
2022/06/22 02:29:23;;;;;;;51.30;8.88;;;6.60;99.90;;;;;;5029271;28;20041;-36
2022/06/22 02:31:51;;;;;;;86.43;13.15;;;7.40;99.90;;;;;;5029176;28;20056;-36
2022/06/22 02:34:17;;;;;;;51.83;9.30;;;6.40;99.90;;;;;;5029032;28;20037;-35
2022/06/22 02:36:48;;;;;;;47.88;9.45;;;6.50;99.90;;;;;;5029129;28;20039;-36
2022/06/22 02:39:16;;;;;;;34.67;7.20;;;6.40;99.90;;;;;;5027047;28;20485;-36
2022/06/22 02:44:34;;;;;;;16.48;6.53;;;6.40;99.90;;;;;;5028916;28;20052;-35
2022/06/22 02:47:31;;;;;;;16.77;7.15;;;7.20;99.90;;;;;;5028561;28;20041;-36
2022/06/22 02:50:35;;;;;;;12.45;7.72;;;6.40;99.90;;;;;;5028032;28;20060;-35
2022/06/22 02:53:05;;;;;;;15.48;9.43;;;6.40;99.90;;;;;;5028252;28;20045;-35
2022/06/22 02:55:35;;;;;;;14.18;9.20;;;6.40;99.90;;;;;;5028470;28;20033;-36
2022/06/22 02:58:02;;;;;;;19.45;9.75;;;6.30;99.90;;;;;;5028000;28;22004;-36
2022/06/22 03:00:33;;;;;;;14.48;7.47;;;6.30;99.90;;;;;;5028324;28;20041;-41
2022/06/22 03:03:07;;;;;;;36.13;6.40;;;6.30;99.90;;;;;;5028260;28;20041;-35
2022/06/22 03:05:35;;;;;;;32.25;7.28;;;6.40;99.90;;;;;;5028647;28;20041;-35
2022/06/22 03:08:02;;;;;;;35.88;7.20;;;6.30;99.90;;;;;;5028396;28;20049;-36
2022/06/22 03:10:36;;;;;;;15.48;6.07;;;6.30;99.90;;;;;;5028041;28;20120;-35
2022/06/22 03:13:02;;;;;;;38.72;6.95;;;7.10;99.90;;;;;;5028128;28;20071;-36
2022/06/22 03:15:34;;;;;;;30.63;6.30;;;6.20;99.90;;;;;;5028608;28;20052;-35
2022/06/22 03:18:01;;;;;;;20.25;5.78;;;6.20;99.90;;;;;;5027818;28;20060;-36
2022/06/22 03:20:32;;;;;;;16.40;7.00;;;6.40;99.90;;;;;;5028238;28;20140;-36
2022/06/22 03:23:12;;;;;;;23.52;6.93;;;6.40;99.90;;;;;;5028001;28;20038;-35
2022/06/22 03:25:47;;;;;;;30.30;7.43;;;6.80;99.90;;;;;;5027871;28;20057;-36
2022/06/22 03:28:17;;;;;;;13.18;7.60;;;6.40;99.90;;;;;;5027619;28;20739;-36
2022/06/22 03:31:12;;;;;;;53.67;9.25;;;6.40;99.90;;;;;;5027683;28;20045;-36
2022/06/22 03:33:47;;;;;;;31.58;8.52;;;6.50;99.90;;;;;;5027929;28;20038;-36
2022/06/22 03:36:21;;;;;;;43.80;9.85;;;6.50;99.90;;;;;;5027532;28;20659;-36
2022/06/22 03:39:03;;;;;;;41.22;9.77;;;6.60;99.90;;;;;;5028045;28;20049;-36
2022/06/22 03:41:33;;;;;;;16.83;9.38;;;6.70;99.90;;;;;;5028284;28;20033;-36
2022/06/22 03:44:15;;;;;;;11.48;8.18;;;6.70;99.90;;;;;;5027799;28;20041;-35
2022/06/22 03:46:52;;;;;;;41.97;11.38;;;6.70;99.90;;;;;;5027669;28;20038;-36
2022/06/22 03:49:32;;;;;;;36.80;11.50;;;6.70;99.90;;;;;;5027295;28;20072;-35
2022/06/22 03:52:26;;;;;;;16.48;8.85;;;6.70;99.90;;;;;;5027449;28;20128;-36
2022/06/22 03:55:04;;;;;;;12.32;8.25;;;7.60;99.90;;;;;;5027647;28;20042;-36
2022/06/22 03:57:36;;;;;;;27.63;8.88;;;6.70;99.90;;;;;;5027544;28;20045;-36
2022/06/22 04:00:04;;;;;;;18.80;7.18;;;6.50;99.90;;;;;;5027562;28;20033;-35
2022/06/22 04:02:30;;;;;;;14.55;8.05;;;6.70;99.90;;;;;;5027542;28;20119;-36
2022/06/22 04:04:58;;;;;;;35.67;8.98;;;6.70;99.90;;;;;;5027404;28;20041;-36
2022/06/22 04:07:27;;;;;;;26.95;8.13;;;6.80;99.90;;;;;;5029098;28;20098;-36
2022/06/22 04:09:58;;;;;;;33.42;9.35;;;6.70;99.90;;;;;;5031019;28;20521;-36
2022/06/22 04:12:32;;;;;;;22.95;9.52;;;6.90;99.90;;;;;;5031461;28;20112;-36
2022/06/22 04:15:23;;;;;;;8.95;7.80;;;7.10;99.90;;;;;;5031325;28;20108;-36
2022/06/22 04:17:54;;;;;;;13.02;8.68;;;7.30;99.90;;;;;;5031753;28;20091;-36
2022/06/22 04:20:50;;;;;;;13.32;8.30;;;7.30;99.90;;;;;;5031537;28;20041;-35
2022/06/22 04:23:31;;;;;;;15.80;8.63;;;7.60;99.90;;;;;;5031655;28;20041;-36
2022/06/22 04:26:30;;;;;;;15.90;8.25;;;7.80;99.90;;;;;;5031895;28;20053;-36
2022/06/22 04:29:26;;;;;;;12.98;8.20;;;7.90;99.90;;;;;;5030880;28;20111;-35
2022/06/22 04:31:58;;;;;;;23.50;8.10;;;8.10;99.90;;;;;;5031685;28;20102;-36
2022/06/22 04:34:33;;;;;;;10.45;7.63;;;8.30;99.90;;;;;;5031315;28;20041;-36
2022/06/22 04:37:05;;;;;;;10.65;7.40;;;8.50;99.90;;;;;;5031533;28;20210;-36
2022/06/22 04:39:45;;;;;;;12.50;8.43;;;8.70;99.90;;;;;;5031372;28;20720;-36
2022/06/22 04:42:10;;;;;;;13.88;8.35;;;8.80;99.90;;;;;;5030763;28;20485;-36
2022/06/22 04:44:56;;;;;;;9.77;7.45;;;9.00;99.90;;;;;;5031400;28;20096;-36
2022/06/22 04:47:28;;;;;;;11.75;8.40;;;9.20;99.90;;;;;;5030340;28;20068;-36
2022/06/22 04:50:03;;;;;;;14.15;8.68;;;9.40;99.90;;;;;;5031216;28;20041;-36
2022/06/22 04:52:42;;;;;;;7.88;6.78;;;9.70;99.90;;;;;;5030637;28;20043;-36
2022/06/22 04:55:15;;;;;;;10.73;6.97;;;9.80;99.90;;;;;;5030531;28;20057;-35
2022/06/22 04:57:42;;;;;;;9.88;6.55;;;10.00;99.90;;;;;;5030781;28;20045;-36
2022/06/22 05:00:21;;;;;;;10.02;7.75;;;10.10;99.90;;;;;;5030767;28;20045;-36
2022/06/22 05:02:53;;;;;;;12.77;6.45;;;10.20;99.90;;;;;;5030735;28;20124;-36
2022/06/22 05:05:25;;;;;;;14.13;8.25;;;10.70;99.90;;;;;;5029966;28;20120;-36
2022/06/22 05:08:01;;;;;;;10.30;7.25;;;10.40;99.90;;;;;;5030705;28;20059;-37
2022/06/22 05:10:44;;;;;;;7.70;6.63;;;10.50;99.90;;;;;;5029481;28;20508;-36
2022/06/22 05:13:13;;;;;;;10.27;7.53;;;10.90;99.90;;;;;;5029981;28;20037;-36
2022/06/22 05:15:40;;;;;;;12.40;8.77;;;11.00;99.90;;;;;;5030312;28;20045;-36
2022/06/22 05:18:16;;;;;;;12.35;8.13;;;11.20;99.90;;;;;;5029073;28;20401;-36
2022/06/22 05:20:55;;;;;;;12.35;9.13;;;11.80;99.90;;;;;;5030288;28;20047;-36
2022/06/22 05:23:23;;;;;;;10.07;8.57;;;11.70;99.90;;;;;;5030122;28;20538;-36
2022/06/22 05:25:53;;;;;;;10.32;7.38;;;12.60;99.90;;;;;;5030491;28;20049;-36
2022/06/22 05:28:39;;;;;;;14.60;9.50;;;12.20;99.90;;;;;;5030524;28;20455;-36
2022/06/22 05:31:13;;;;;;;12.23;9.77;;;12.40;99.90;;;;;;5030707;28;20041;-36
2022/06/22 05:33:43;;;;;;;11.13;8.95;;;12.70;99.90;;;;;;5030357;28;20049;-36
2022/06/22 05:36:12;;;;;;;12.57;9.60;;;12.90;99.90;;;;;;5030198;28;20055;-36
2022/06/22 05:38:45;;;;;;;11.25;9.32;;;13.90;99.90;;;;;;5029615;28;20053;-36
2022/06/22 05:41:15;;;;;;;12.38;9.43;;;13.50;99.90;;;;;;5029733;28;20045;-36
2022/06/22 05:43:41;;;;;;;13.35;10.38;;;13.80;99.90;;;;;;5029718;28;20044;-37
2022/06/22 05:46:09;;;;;;;11.18;9.07;;;14.10;99.90;;;;;;5029946;28;20072;-37
2022/06/22 05:48:41;;;;;;;14.07;9.38;;;14.80;99.90;;;;;;5029625;28;20401;-37
2022/06/22 05:51:16;;;;;;;12.73;10.02;;;15.60;99.90;;;;;;5029527;28;20496;-36
2022/06/22 05:53:49;;;;;;;16.67;10.70;;;16.80;99.90;;;;;;5029353;28;20052;-37
2022/06/22 05:56:29;;;;;;;14.25;9.63;;;17.50;99.90;;;;;;5028508;28;20053;-37
2022/06/22 05:59:07;;;;;;;12.73;9.15;;;19.00;99.90;;;;;;5028924;28;20049;-38
2022/06/22 06:02:10;;;;;;;13.32;9.82;;;19.70;99.90;;;;;;5028813;28;20041;-37
2022/06/22 06:04:41;;;;;;;12.13;9.15;;;19.00;98.00;;;;;;5028976;28;20052;-37
2022/06/22 06:07:12;;;;;;;13.00;8.85;;;18.90;99.90;;;;;;5029191;28;20117;-37
2022/06/22 06:09:37;;;;;;;15.15;9.48;;;19.30;99.90;;;;;;5028592;28;20075;-36
2022/06/22 06:12:13;;;;;;;10.15;7.93;;;21.10;98.50;;;;;;5028958;28;20048;-37
2022/06/22 06:14:46;;;;;;;8.85;7.15;;;23.40;93.10;;;;;;5029034;28;20119;-37
2022/06/22 06:17:17;;;;;;;10.88;8.00;;;25.20;87.70;;;;;;5027738;28;20092;-37
2022/06/22 06:19:48;;;;;;;9.57;6.90;;;26.60;95.70;;;;;;5028788;28;20121;-37
2022/06/22 06:22:14;;;;;;;8.38;6.72;;;27.30;76.70;;;;;;5028650;28;20039;-38
2022/06/22 06:27:40;;;;;;;12.90;6.85;;;24.80;69.50;;;;;;5028031;28;20570;-38
2022/06/22 06:30:32;;;;;;;10.75;6.00;;;25.50;75.40;;;;;;5028203;28;20052;-38
2022/06/22 06:33:29;;;;;;;10.35;5.60;;;25.60;72.70;;;;;;5027247;28;20408;-38
2022/06/22 06:36:14;;;;;;;6.97;4.90;;;26.40;74.10;;;;;;5028972;28;20047;-38
2022/06/22 06:39:05;;;;;;;7.75;4.85;;;27.80;69.40;;;;;;5028014;28;20069;-38
2022/06/22 06:42:04;;;;;;;8.13;5.00;;;29.30;63.50;;;;;;5027113;28;20045;-38
2022/06/22 06:44:33;;;;;;;6.13;4.53;;;30.60;61.30;;;;;;5028719;28;20042;-38
2022/06/22 06:47:05;;;;;;;9.43;3.75;;;31.90;60.80;;;;;;5028853;28;20059;-38
2022/06/22 06:49:43;;;;;;;5.78;3.75;;;32.70;57.40;;;;;;5028649;28;20139;-38
2022/06/22 06:52:32;;;;;;;5.95;3.38;;;33.60;56.00;;;;;;5028739;28;20513;-39
2022/06/22 06:55:08;;;;;;;6.50;3.30;;;34.00;50.70;;;;;;5028374;28;20045;-37
2022/06/22 06:57:36;;;;;;;6.30;3.13;;;34.60;52.30;;;;;;5028401;28;20099;-37
2022/06/22 07:00:06;;;;;;;4.45;3.10;;;34.90;50.40;;;;;;5028218;28;20045;-37
2022/06/22 07:02:36;;;;;;;7.53;3.08;;;35.50;49.70;;;;;;5028160;28;20125;-37
2022/06/22 07:05:06;;;;;;;5.53;3.05;;;36.00;47.80;;;;;;5027986;28;20870;-36
2022/06/22 07:07:50;;;;;;;7.32;3.15;;;36.20;46.70;;;;;;5027794;28;20116;-37
2022/06/22 07:10:39;;;;;;;7.65;3.03;;;36.80;47.10;;;;;;5027759;28;20075;-37
2022/06/22 07:13:29;;;;;;;6.38;2.50;;;37.00;45.50;;;;;;5028226;28;20515;-36
2022/06/22 07:15:58;;;;;;;5.88;2.22;;;37.30;45.00;;;;;;5028109;28;20892;-37
2022/06/22 07:18:43;;;;;;;6.28;2.33;;;37.70;44.20;;;;;;5027965;28;20045;-37
2022/06/22 07:21:17;;;;;;;5.40;2.58;;;38.00;43.30;;;;;;5028325;28;20076;-36
2022/06/22 07:23:52;;;;;;;7.47;2.85;;;38.10;42.80;;;;;;5027607;28;20094;-37
2022/06/22 07:26:26;;;;;;;7.65;2.40;;;38.30;42.50;;;;;;5028061;28;20110;-36
2022/06/22 07:29:04;;;;;;;6.45;2.38;;;38.60;41.30;;;;;;5028019;28;20053;-37
2022/06/22 07:31:37;;;;;;;5.18;2.10;;;38.80;41.40;;;;;;5028004;28;20132;-36
2022/06/22 07:34:13;;;;;;;4.65;2.13;;;39.00;40.60;;;;;;5026448;28;20378;-37
2022/06/22 07:36:48;;;;;;;4.05;2.10;;;39.20;39.10;;;;;;5027675;28;20049;-36
2022/06/22 07:39:29;;;;;;;5.03;2.05;;;39.30;41.30;;;;;;5027454;28;20047;-36
2022/06/22 07:41:54;;;;;;;7.30;2.30;;;39.70;40.60;;;;;;5029359;28;20049;-37
2022/06/22 07:44:25;;;;;;;4.75;1.85;;;40.00;40.50;;;;;;5032347;28;20026;-37
2022/06/22 07:47:08;;;;;;;6.40;2.33;;;40.10;38.60;;;;;;5032173;28;20033;-37
2022/06/22 07:49:59;;;;;;;7.35;2.30;;;40.30;39.40;;;;;;5031828;28;20049;-36
2022/06/22 07:52:32;;;;;;;5.53;2.53;;;40.50;39.00;;;;;;5031701;28;20041;-36
2022/06/22 07:55:14;;;;;;;4.18;1.73;;;40.40;37.10;;;;;;5031629;28;20045;-37
2022/06/22 07:57:47;;;;;;;4.75;1.73;;;40.30;37.30;;;;;;5031281;28;20045;-37
2022/06/22 08:00:19;;;;;;;6.75;2.70;;;40.00;36.70;;;;;;5031616;28;20046;-37
2022/06/22 08:02:56;;;;;;;4.10;1.95;;;39.60;37.00;;;;;;5031655;28;20423;-37
2022/06/22 08:05:26;;;;;;;4.88;1.52;;;39.40;38.20;;;;;;5031738;28;20479;-37
2022/06/22 08:07:58;;;;;;;5.60;1.47;;;39.10;37.70;;;;;;5031451;28;20535;-37
2022/06/22 08:10:47;;;;;;;5.18;1.67;;;39.30;37.80;;;;;;5030966;28;20049;-37
2022/06/22 08:13:24;;;;;;;4.32;2.00;;;39.60;36.90;;;;;;5031592;28;20084;-37
2022/06/22 08:16:01;;;;;;;6.90;2.13;;;39.30;37.00;;;;;;5030952;28;20535;-37
2022/06/22 08:18:29;;;;;;;5.07;2.08;;;39.20;37.10;;;;;;5031356;28;20033;-37
2022/06/22 08:20:57;;;;;;;3.42;1.85;;;39.00;36.90;;;;;;5031649;28;20045;-37
2022/06/22 08:23:34;;;;;;;5.80;2.10;;;38.80;36.80;;;;;;5031567;28;20656;-37
2022/06/22 08:26:05;;;;;;;4.30;1.73;;;39.00;37.10;;;;;;5031166;28;20497;-37
2022/06/22 08:28:34;;;;;;;4.05;1.38;;;39.00;36.60;;;;;;5031314;28;20112;-37
2022/06/22 08:31:00;;;;;;;5.43;1.92;;;39.10;37.00;;;;;;5031298;28;20048;-38
2022/06/22 08:33:38;;;;;;;5.10;1.90;;;39.40;36.70;;;;;;5031154;28;20045;-37
2022/06/22 08:36:33;;;;;;;4.93;1.77;;;39.50;37.40;;;;;;5031527;28;20111;-37
2022/06/22 08:39:29;;;;;;;3.20;0.93;;;40.00;35.70;;;;;;5031300;28;20041;-37
2022/06/22 08:42:15;;;;;;;3.78;1.55;;;40.70;36.60;;;;;;5031436;28;20131;-37
2022/06/22 08:45:13;;;;;;;4.82;2.42;;;41.20;35.60;;;;;;5029886;28;20041;-37
2022/06/22 08:48:01;;;;;;;4.93;2.05;;;41.30;33.50;;;;;;5030488;28;20120;-37
2022/06/22 08:50:58;;;;;;;5.40;1.60;;;41.30;35.90;;;;;;5030901;28;20154;-37
2022/06/22 08:53:54;;;;;;;6.32;2.03;;;41.60;34.70;;;;;;5030501;28;20052;-37
2022/06/22 08:56:51;;;;;;;6.97;2.80;;;41.60;36.50;;;;;;5030633;28;20049;-37
2022/06/22 08:59:22;;;;;;;5.78;1.65;;;41.20;35.20;;;;;;5030676;28;20133;-37
2022/06/22 09:01:57;;;;;;;3.88;1.58;;;41.20;34.80;;;;;;5030634;28;20073;-38
2022/06/22 09:04:38;;;;;;;4.20;1.75;;;41.70;35.70;;;;;;5030629;28;20877;-37
2022/06/22 09:07:42;;;;;;;6.28;2.50;;;42.60;34.60;;;;;;5025423;28;20082;-45
2022/06/22 09:10:24;;;;;;;9.35;3.92;;;43.20;34.10;;;;;;5026083;28;20091;-46
2022/06/22 09:13:17;;;;;;;3.60;1.10;;;42.90;32.80;;;;;;5028529;28;20057;-43
2022/06/22 09:15:47;;;;;;;6.45;2.00;;;42.40;32.60;;;;;;5028937;28;20052;-43
2022/06/22 09:18:30;;;;;;;4.72;1.80;;;42.20;32.80;;;;;;5028872;28;20564;-44
2022/06/22 09:21:09;;;;;;;7.15;1.75;;;42.00;33.90;;;;;;5029006;28;20053;-44
2022/06/22 09:24:10;;;;;;;4.35;2.40;;;41.90;34.60;;;;;;5028695;28;20197;-42
2022/06/22 09:26:47;;;;;;;3.95;1.92;;;41.90;33.60;;;;;;5028523;28;20124;-45
2022/06/22 09:29:27;;;;;;;5.65;1.63;;;41.90;33.10;;;;;;5028558;28;20085;-41
2022/06/22 09:32:28;;;;;;;6.50;1.60;;;41.70;33.70;;;;;;5028286;28;20057;-42
2022/06/22 09:35:17;;;;;;;6.88;2.63;;;41.90;33.80;;;;;;5037328;28;20075;-43
2022/06/22 09:37:56;;;;;;;4.00;1.48;;;42.10;33.10;;;;;;5028187;28;20052;-42
2022/06/22 09:40:31;;;;;;;5.47;2.35;;;42.50;34.00;;;;;;5028806;28;20042;-43
2022/06/22 09:43:20;;;;;;;4.93;1.70;;;42.30;33.10;;;;;;5027586;28;20466;-44
2022/06/22 09:46:13;;;;;;;4.10;1.60;;;42.00;32.40;;;;;;5028041;28;20049;-42
2022/06/22 09:48:57;;;;;;;4.85;1.85;;;42.20;32.60;;;;;;5028228;28;20049;-43
2022/06/22 09:52:05;;;;;;;5.20;1.15;;;42.10;32.30;;;;;;5027936;28;20042;-40
2022/06/22 09:58:04;;;;;;;3.60;1.30;;;41.60;32.80;;;;;;5028083;28;20835;-45
2022/06/22 10:00:52;;;;;;;4.75;1.15;;;41.40;33.40;;;;;;5026307;28;20057;-42
2022/06/22 10:03:42;;;;;;;6.30;1.73;;;40.80;33.10;;;;;;5027817;28;20496;-43
2022/06/22 10:06:26;;;;;;;4.68;1.20;;;40.20;35.40;;;;;;5026372;28;20128;-46
2022/06/22 10:09:18;;;;;;;5.57;1.38;;;40.10;35.00;;;;;;5030729;28;20116;-45
2022/06/22 10:12:15;;;;;;;6.32;1.40;;;40.10;33.70;;;;;;5030153;28;20038;-45
2022/06/22 10:15:20;;;;;;;3.60;0.95;;;39.70;35.50;;;;;;5030564;28;20061;-43
2022/06/22 10:18:23;;;;;;;2.13;1.10;;;40.10;36.20;;;;;;5029785;28;20473;-43
2022/06/22 10:21:04;;;;;;;5.43;1.52;;;40.10;34.20;;;;;;5029583;28;20447;-44
2022/06/22 10:23:55;;;;;;;4.20;1.67;;;39.30;34.40;;;;;;5029948;28;20049;-43
2022/06/22 10:26:35;;;;;;;;;;;39.00;34.80;;;;;;5030074;28;20460;-44
2022/06/22 10:29:12;;;;;;;6.40;1.92;;;39.40;35.70;;;;;;5029633;28;19947;-44
2022/06/22 10:32:18;;;;;;;5.32;1.65;;;38.90;35.90;;;;;;5029590;28;20041;-44
2022/06/22 10:35:15;;;;;;;6.53;1.85;;;39.40;36.40;;;;;;5029756;28;20041;-42
2022/06/22 10:38:15;;;;;;;5.35;2.22;;;38.60;39.00;;;;;;5029094;28;20504;-43
2022/06/22 10:47:22;;;;;;;6.32;2.17;;;37.70;37.60;;;;;;5029433;28;20049;-42
2022/06/22 10:50:06;;;;;;;6.63;1.65;;;37.60;36.70;;;;;;5029593;28;20045;-42
2022/06/22 10:53:02;;;;;;;5.13;1.73;;;37.50;37.10;;;;;;5029542;28;20041;-43
2022/06/22 10:55:46;;;;;;;5.57;1.73;;;36.40;37.80;;;;;;5029406;28;20038;-41
2022/06/22 10:58:28;;;;;;;6.60;2.33;;;34.80;39.60;;;;;;5028971;28;20559;-43
2022/06/22 11:01:02;;;;;;;6.78;2.60;;;33.50;40.30;;;;;;5029059;28;20049;-43
2022/06/22 11:03:57;;;;;;;5.53;2.20;;;32.40;39.90;;;;;;5029094;28;20045;-42
2022/06/22 11:06:42;;;;;;;6.13;2.13;;;31.20;41.70;;;;;;5028954;28;20049;-42
2022/06/22 11:09:27;;;;;;;5.15;1.90;;;30.30;44.00;;;;;;5029252;28;20045;-43
2022/06/22 11:12:17;;;;;;;4.35;1.70;;;29.50;45.10;;;;;;5029739;28;20099;-42
2022/06/22 11:15:01;;;;;;;5.70;2.60;;;29.30;47.20;;;;;;5028894;28;20103;-41
2022/06/22 11:17:57;;;;;;;5.20;2.03;;;29.00;46.80;;;;;;5028067;28;20056;-41
2022/06/22 11:20:38;;;;;;;4.90;2.35;;;28.80;48.30;;;;;;5027595;28;20101;-42
2022/06/22 11:23:10;;;;;;;5.57;3.10;;;28.20;48.50;;;;;;5029171;28;20392;-42
2022/06/22 11:31:59;;;;;;;7.75;2.50;;;26.40;49.20;;;;;;5029324;28;20053;-42
2022/06/22 11:34:35;;;;;;;7.43;2.72;;;26.20;53.10;;;;;;5029255;28;20077;-42
2022/06/22 11:37:25;;;;;;;6.53;2.70;;;26.00;52.40;;;;;;5028992;28;20118;-42
2022/06/22 11:39:57;;;;;;;5.50;2.67;;;26.10;53.30;;;;;;5028511;28;20050;-42
2022/06/22 11:42:43;;;;;;;7.60;2.55;;;26.00;53.20;;;;;;5027607;28;20041;-43
2022/06/22 11:46:01;;;;;;;7.53;3.15;;;26.00;53.40;;;;;;5028730;28;20041;-42
2022/06/22 11:48:54;;;;;;;5.10;2.47;;;25.90;54.50;;;;;;5014441;28;20107;-41
2022/06/22 11:51:51;;;;;;;9.95;3.92;;;25.70;54.70;;;;;;5027632;28;20080;-42
2022/06/22 11:54:53;;;;;;;8.43;4.63;;;25.40;54.40;;;;;;5028998;28;20041;-41
2022/06/22 11:58:04;;;;;;;5.60;3.47;;;25.20;55.60;;;;;;5028660;28;20387;-41
2022/06/22 12:00:32;;;;;;;7.07;4.60;;;24.90;53.70;;;;;;5028790;28;20053;-42
2022/06/22 12:03:21;;;;;;;9.75;4.03;;;24.60;55.60;;;;;;5028445;28;20392;-43
2022/06/22 12:05:57;;;;;;;8.20;4.03;;;24.50;55.90;;;;;;5028836;28;20041;-42
2022/06/22 12:09:00;;;;;;;6.28;4.03;;;24.50;57.00;;;;;;5028610;28;20045;-41
2022/06/22 12:11:50;;;;;;;7.45;3.22;;;24.50;56.60;;;;;;5027944;28;20492;-41
2022/06/22 12:17:32;;;;;;;6.07;3.30;;;24.70;57.00;;;;;;5028809;28;20068;-42
2022/06/22 12:20:10;;;;;;;4.43;2.55;;;24.50;55.30;;;;;;5028420;28;20045;-42
2022/06/22 12:23:00;;;;;;;7.85;3.45;;;24.40;56.30;;;;;;5028781;28;20417;-42
2022/06/22 12:25:55;;;;;;;6.25;3.55;;;24.20;54.50;;;;;;5028428;28;20068;-42
2022/06/22 12:28:26;;;;;;;6.97;4.07;;;24.20;56.00;;;;;;5030491;28;20041;-41
2022/06/22 12:30:59;;;;;;;;;;;24.10;54.50;;;;;;5033051;28;20420;-43
2022/06/22 12:33:48;;;;;;;6.43;4.22;;;24.00;56.00;;;;;;5032440;28;19917;-41
2022/06/22 12:36:20;;;;;;;7.22;4.47;;;23.80;55.40;;;;;;5031992;28;20111;-42
2022/06/22 12:38:51;;;;;;;;;;;23.70;55.20;;;;;;5032602;28;20396;-42
2022/06/22 12:41:37;;;;;;;6.57;3.67;;;23.70;57.10;;;;;;5033012;28;19916;-42
2022/06/22 12:44:43;;;;;;;6.35;2.97;;;23.70;55.80;;;;;;5031939;28;20056;-42
2022/06/22 12:47:27;;;;;;;8.98;3.60;;;23.50;56.50;;;;;;5032090;28;20115;-44
2022/06/22 12:50:13;;;;;;;7.60;4.00;;;23.60;58.10;;;;;;5031097;28;20409;-42
2022/06/22 12:52:45;;;;;;;4.70;3.47;;;23.50;56.20;;;;;;5031500;28;20079;-41
2022/06/22 12:55:15;;;;;;;11.20;3.70;;;23.40;55.60;;;;;;5031420;28;20493;-42
2022/06/22 12:58:03;;;;;;;7.43;2.90;;;23.30;57.60;;;;;;5031982;28;20041;-41
2022/06/22 13:00:29;;;;;;;8.70;3.80;;;23.40;57.50;;;;;;5031741;28;20425;-42
2022/06/22 13:02:58;;;;;;;9.77;3.90;;;23.40;56.90;;;;;;5031201;28;20048;-42
2022/06/22 13:05:29;;;;;;;7.82;3.35;;;23.60;56.90;;;;;;5031105;28;20257;-42
2022/06/22 13:07:59;;;;;;;6.53;3.70;;;23.60;57.30;;;;;;5030809;28;20500;-41
2022/06/22 13:10:28;;;;;;;7.63;3.15;;;23.60;56.20;;;;;;5030974;28;20387;-41
2022/06/22 13:13:25;;;;;;;6.63;2.53;;;23.40;55.80;;;;;;5031012;28;20049;-41
2022/06/22 13:16:06;;;;;;;7.75;3.08;;;23.40;58.00;;;;;;5031472;28;20088;-42
2022/06/22 13:18:39;;;;;;;8.45;3.45;;;23.60;59.10;;;;;;5031403;28;20053;-42
2022/06/22 13:21:14;;;;;;;6.70;3.20;;;23.60;58.10;;;;;;5030676;28;20049;-42
2022/06/22 13:24:00;;;;;;;9.05;3.53;;;23.70;57.90;;;;;;5029460;28;20515;-42
2022/06/22 13:26:54;;;;;;;5.53;2.80;;;23.80;57.70;;;;;;5030804;28;20051;-41
2022/06/22 13:29:49;;;;;;;4.43;2.28;;;23.70;56.80;;;;;;5031003;28;20476;-42
2022/06/22 13:32:17;;;;;;;6.75;3.40;;;23.70;58.30;;;;;;5030577;28;20246;-42
2022/06/22 13:34:46;;;;;;;8.15;3.42;;;23.70;57.10;;;;;;5031095;28;20480;-42
2022/06/22 13:37:27;;;;;;;7.40;3.60;;;23.60;57.80;;;;;;5030863;28;20106;-42
2022/06/22 13:40:09;;;;;;;5.55;2.58;;;23.60;58.70;;;;;;5029547;28;20092;-42
2022/06/22 13:42:50;;;;;;;5.90;3.00;;;23.60;58.10;;;;;;5031162;28;20041;-42
2022/06/22 13:45:33;;;;;;;11.07;3.53;;;23.60;56.10;;;;;;5030143;28;20099;-42
2022/06/22 13:48:07;;;;;;;7.00;2.75;;;23.60;58.60;;;;;;5030448;28;20038;-42
2022/06/22 13:51:08;;;;;;;7.88;2.60;;;23.60;57.80;;;;;;5029616;28;20447;-41
2022/06/22 13:53:59;;;;;;;7.40;3.05;;;23.50;58.80;;;;;;5030487;28;20042;-42
2022/06/22 13:56:57;;;;;;;6.95;3.10;;;23.50;59.70;;;;;;5030597;28;20072;-41
2022/06/22 13:59:38;;;;;;;6.15;2.83;;;23.60;58.70;;;;;;5030161;28;20052;-42
2022/06/22 14:02:19;;;;;;;8.52;2.83;;;23.50;56.70;;;;;;5030394;28;20055;-41
2022/06/22 14:04:53;;;;;;;5.32;2.22;;;23.40;57.30;;;;;;5030622;28;20396;-41
2022/06/22 14:07:29;;;;;;;5.88;2.03;;;23.30;58.20;;;;;;5030308;28;20123;-41
2022/06/22 14:10:09;;;;;;;4.65;2.92;;;23.30;58.70;;;;;;5029993;28;20401;-42
2022/06/22 14:12:49;;;;;;;8.32;2.60;;;23.40;57.80;;;;;;5030412;28;20057;-41
2022/06/22 14:15:21;;;;;;;7.38;2.90;;;23.40;57.10;;;;;;5029892;28;20045;-42